createdAt,value
2019-03-16T00:00:15.873Z,93685.28
2019-03-16T00:02:44.623Z,93690.73
2019-03-16T00:05:13.601Z,93699.19
2019-03-16T00:07:42.060Z,93717.73
2019-03-16T00:10:10.978Z,93713.12
2019-03-16T00:12:39.605Z,93716.08
2019-03-16T00:15:08.905Z,93719.45
2019-03-16T00:17:37.750Z,93727.91
2019-03-16T00:20:11.436Z,93723.34
2019-03-16T00:22:40.048Z,93719.61
2019-03-16T00:25:10.094Z,93717.54
2019-03-16T00:27:38.699Z,93720.14
2019-03-16T00:30:12.919Z,93719.36
2019-03-16T00:32:41.597Z,93716.89
2019-03-16T00:35:10.995Z,93729.16
2019-03-16T00:37:42.601Z,93739.33
2019-03-16T00:40:12.954Z,93738.94
2019-03-16T00:42:41.595Z,93734.81
2019-03-16T00:45:12.067Z,93728.13
2019-03-16T00:47:40.618Z,93734.11
2019-03-16T00:50:13.723Z,93737.55
2019-03-16T00:52:42.655Z,93729.59
2019-03-16T00:55:12.221Z,93736.00
2019-03-16T00:57:40.927Z,93729.29
2019-03-16T01:00:15.319Z,93731.88
2019-03-16T01:02:44.646Z,93728.95
2019-03-16T01:05:13.464Z,93723.52
2019-03-16T01:07:42.085Z,93722.30
2019-03-16T01:10:11.304Z,93718.11
2019-03-16T01:12:39.909Z,93739.19
2019-03-16T01:15:12.952Z,93759.83
2019-03-16T01:17:41.669Z,93779.64
2019-03-16T01:20:11.691Z,93769.58
2019-03-16T01:22:41.858Z,93794.86
2019-03-16T01:25:13.007Z,93802.44
2019-03-16T01:27:41.609Z,93811.70
2019-03-16T01:30:12.641Z,93824.80
2019-03-16T01:32:41.343Z,93830.67
2019-03-16T01:35:10.284Z,93805.03
2019-03-16T01:37:39.037Z,93778.12
2019-03-16T01:40:10.051Z,93809.25
2019-03-16T01:42:38.764Z,93813.04
2019-03-16T01:45:11.220Z,93817.25
2019-03-16T01:47:40.079Z,93813.87
2019-03-16T01:50:10.529Z,93823.53
2019-03-16T01:52:39.232Z,93836.99
2019-03-16T01:55:09.301Z,93839.95
2019-03-16T01:57:37.797Z,93874.03
2019-03-16T02:00:11.605Z,93896.32
2019-03-16T02:02:53.706Z,93875.69
2019-03-16T02:05:10.669Z,93898.44
2019-03-16T02:07:39.368Z,93921.19
2019-03-16T02:10:09.920Z,93934.27
2019-03-16T02:12:38.542Z,93934.27
2019-03-16T02:15:08.692Z,93900.59
2019-03-16T02:17:37.409Z,93899.33
2019-03-16T02:20:08.108Z,93911.92
2019-03-16T02:22:36.763Z,93922.80
2019-03-16T02:25:07.010Z,93890.38
2019-03-16T02:27:35.698Z,93900.02
2019-03-16T02:30:06.533Z,93863.41
2019-03-16T02:32:35.092Z,93799.84
2019-03-16T02:35:04.580Z,93831.01
2019-03-16T02:37:37.303Z,93825.49
2019-03-16T02:40:10.416Z,93836.42
2019-03-16T02:42:39.063Z,93814.48
2019-03-16T02:45:09.741Z,93809.86
2019-03-16T02:47:39.212Z,93770.67
2019-03-16T02:50:09.775Z,93786.66
2019-03-16T02:52:38.339Z,93790.41
2019-03-16T02:55:09.201Z,93788.27
2019-03-16T02:57:37.731Z,93792.89
2019-03-16T03:00:12.228Z,93781.92
2019-03-16T03:02:41.027Z,93776.03
2019-03-16T03:05:13.028Z,93770.54
2019-03-16T03:07:41.899Z,93748.24
2019-03-16T03:10:17.446Z,93734.34
2019-03-16T03:12:46.155Z,93745.27
2019-03-16T03:15:14.753Z,93746.06
2019-03-16T03:17:43.310Z,93746.89
2019-03-16T03:20:12.045Z,93748.16
2019-03-16T03:22:40.599Z,93740.14
2019-03-16T03:25:09.270Z,93763.73
2019-03-16T03:27:37.956Z,93760.79
2019-03-16T03:30:11.883Z,93780.17
2019-03-16T03:32:40.113Z,93790.23
2019-03-16T03:35:10.632Z,93777.20
2019-03-16T03:37:39.270Z,93812.54
2019-03-16T03:40:10.241Z,93780.95
2019-03-16T03:42:38.875Z,93787.22
2019-03-16T03:45:10.446Z,93783.86
2019-03-16T03:47:39.066Z,93782.60
2019-03-16T03:50:12.882Z,93796.90
2019-03-16T03:52:50.611Z,93797.37
2019-03-16T03:55:15.543Z,93802.83
2019-03-16T03:57:44.190Z,93799.91
2019-03-16T04:00:19.509Z,93789.80
2019-03-16T04:02:48.130Z,93795.68
2019-03-16T04:05:16.916Z,93802.88
2019-03-16T04:07:45.562Z,93811.70
2019-03-16T04:10:14.363Z,93802.42
2019-03-16T04:12:42.910Z,93806.22
2019-03-16T04:15:13.042Z,93801.99
2019-03-16T04:17:41.893Z,93796.50
2019-03-16T04:20:13.294Z,93811.66
2019-03-16T04:22:41.893Z,93799.86
2019-03-16T04:25:10.492Z,93797.77
2019-03-16T04:27:39.023Z,93792.70
2019-03-16T04:30:11.441Z,93796.50
2019-03-16T04:32:39.977Z,93799.02
2019-03-16T04:35:10.565Z,93801.52
2019-03-16T04:37:38.856Z,93792.27
2019-03-16T04:40:13.474Z,93804.05
2019-03-16T04:42:42.038Z,93799.42
2019-03-16T04:45:11.729Z,93806.17
2019-03-16T04:47:40.377Z,93817.59
2019-03-16T04:50:11.394Z,93828.53
2019-03-16T04:52:40.114Z,93824.73
2019-03-16T04:55:09.782Z,93819.25
2019-03-16T04:57:38.440Z,93834.02
2019-03-16T05:00:10.138Z,93839.07
2019-03-16T05:02:38.742Z,93832.72
2019-03-16T05:05:07.811Z,93845.74
2019-03-16T05:07:36.350Z,93850.80
2019-03-16T05:10:07.758Z,93849.92
2019-03-16T05:12:36.501Z,93855.02
2019-03-16T05:15:07.875Z,93857.94
2019-03-16T05:17:36.438Z,93849.09
2019-03-16T05:20:10.583Z,93850.31
2019-03-16T05:22:39.492Z,93854.14
2019-03-16T05:25:10.687Z,93865.92
2019-03-16T05:27:39.144Z,93870.11
2019-03-16T05:30:13.029Z,93862.95
2019-03-16T05:32:41.550Z,93862.91
2019-03-16T05:35:10.157Z,93857.86
2019-03-16T05:37:38.755Z,93855.33
2019-03-16T05:40:09.925Z,93869.62
2019-03-16T05:42:38.587Z,93872.58
2019-03-16T05:45:10.140Z,93868.75
2019-03-16T05:47:40.241Z,93875.89
2019-03-16T05:50:15.881Z,93884.70
2019-03-16T05:52:44.357Z,93880.47
2019-03-16T05:55:12.949Z,93888.84
2019-03-16T05:57:41.498Z,93889.72
2019-03-16T06:00:13.452Z,93900.66
2019-03-16T06:02:42.190Z,93901.92
2019-03-16T06:05:13.059Z,93906.94
2019-03-16T06:07:41.669Z,93912.38
2019-03-16T06:10:11.760Z,93914.44
2019-03-16T06:12:40.359Z,93921.59
2019-03-16T06:15:10.607Z,93922.41
2019-03-16T06:17:39.133Z,93926.59
2019-03-16T06:20:12.541Z,93913.50
2019-03-16T06:22:41.146Z,93924.84
2019-03-16T06:25:10.550Z,93931.12
2019-03-16T06:27:39.071Z,93931.95
2019-03-16T06:30:13.118Z,93932.73
2019-03-16T06:32:41.673Z,93936.05
2019-03-16T06:35:23.422Z,93944.89
2019-03-16T06:37:41.172Z,93951.13
2019-03-16T06:40:11.322Z,93957.40
2019-03-16T06:42:40.222Z,93958.23
2019-03-16T06:45:10.423Z,93954.81
2019-03-16T06:47:39.045Z,93964.45
2019-03-16T06:50:12.388Z,93970.30
2019-03-16T06:52:40.923Z,93973.70
2019-03-16T06:55:10.127Z,93969.81
2019-03-16T06:57:38.649Z,93973.15
2019-03-16T07:00:12.825Z,93986.98
2019-03-16T07:02:41.362Z,93988.24
2019-03-16T07:05:11.865Z,93988.63
2019-03-16T07:07:40.569Z,93995.35
2019-03-16T07:10:16.390Z,93994.41
2019-03-16T07:12:44.893Z,93999.09
2019-03-16T07:15:14.952Z,93994.80
2019-03-16T07:17:43.554Z,94001.94
2019-03-16T07:20:13.889Z,94002.66
2019-03-16T07:22:42.412Z,93994.56
2019-03-16T07:25:11.164Z,93996.20
2019-03-16T07:27:39.845Z,94006.34
2019-03-16T07:30:14.132Z,94013.94
2019-03-16T07:32:45.105Z,94018.90
2019-03-16T07:35:13.767Z,94011.61
2019-03-16T07:37:42.294Z,94027.53
2019-03-16T07:40:12.814Z,94021.06
2019-03-16T07:42:41.418Z,94027.41
2019-03-16T07:45:13.396Z,94039.61
2019-03-16T07:47:42.002Z,94038.73
2019-03-16T07:50:12.808Z,94040.31
2019-03-16T07:52:41.409Z,94043.17
2019-03-16T07:55:10.449Z,94047.33
2019-03-16T07:57:40.317Z,94059.12
2019-03-16T08:00:13.079Z,94059.89
2019-03-16T08:02:43.361Z,94070.03
2019-03-16T08:05:18.673Z,94080.11
2019-03-16T08:07:42.252Z,94087.27
2019-03-16T08:10:11.879Z,94084.67
2019-03-16T08:12:40.479Z,94092.96
2019-03-16T08:15:10.449Z,94092.02
2019-03-16T08:17:39.087Z,94100.44
2019-03-16T08:20:09.590Z,94105.13
2019-03-16T08:22:38.128Z,94105.59
2019-03-16T08:25:07.832Z,94120.47
2019-03-16T08:27:36.360Z,94120.01
2019-03-16T08:30:07.922Z,94139.49
2019-03-16T08:32:36.551Z,94120.89
2019-03-16T08:35:06.545Z,94135.98
2019-03-16T08:37:37.842Z,94132.86
2019-03-16T08:40:11.096Z,94149.66
2019-03-16T08:42:39.633Z,94136.30
2019-03-16T08:45:11.504Z,94151.02
2019-03-16T08:47:40.109Z,94152.16
2019-03-16T08:50:12.056Z,94145.64
2019-03-16T08:52:40.853Z,94158.25
2019-03-16T08:55:10.222Z,94158.80
2019-03-16T08:57:38.942Z,94162.69
2019-03-16T09:00:12.488Z,94173.27
2019-03-16T09:02:41.028Z,94180.90
2019-03-16T09:05:09.824Z,94186.37
2019-03-16T09:07:38.351Z,94186.74
2019-03-16T09:10:09.388Z,94192.02
2019-03-16T09:12:38.022Z,94188.58
2019-03-16T09:15:14.600Z,94185.44
2019-03-16T09:17:43.768Z,94183.91
2019-03-16T09:20:12.376Z,94191.23
2019-03-16T09:22:40.977Z,94193.05
2019-03-16T09:25:10.407Z,94198.50
2019-03-16T09:27:39.437Z,94206.71
2019-03-16T09:30:16.102Z,94212.05
2019-03-16T09:32:44.730Z,94200.74
2019-03-16T09:35:13.365Z,94214.20
2019-03-16T09:37:41.972Z,94217.95
2019-03-16T09:40:12.280Z,94219.45
2019-03-16T09:42:42.316Z,94226.61
2019-03-16T09:45:14.441Z,94224.89
2019-03-16T09:47:46.485Z,94236.92
2019-03-16T09:50:15.046Z,94229.09
2019-03-16T09:52:43.651Z,94234.02
2019-03-16T09:55:13.414Z,94254.80
2019-03-16T09:57:42.051Z,94234.98
2019-03-16T10:00:15.955Z,94241.34
2019-03-16T10:02:44.547Z,94244.23
2019-03-16T10:05:13.491Z,94228.48
2019-03-16T10:07:41.946Z,94238.25
2019-03-16T10:10:15.356Z,94236.83
2019-03-16T10:12:43.961Z,94232.79
2019-03-16T10:15:14.171Z,94244.72
2019-03-16T10:17:42.714Z,94236.80
2019-03-16T10:20:13.395Z,94227.92
2019-03-16T10:22:41.995Z,94240.45
2019-03-16T10:25:10.598Z,94238.61
2019-03-16T10:27:39.176Z,94241.45
2019-03-16T10:30:12.718Z,94271.98
2019-03-16T10:32:41.289Z,94263.80
2019-03-16T10:35:09.891Z,94265.55
2019-03-16T10:37:38.486Z,94274.90
2019-03-16T10:40:10.036Z,94270.16
2019-03-16T10:42:39.769Z,94276.45
2019-03-16T10:45:10.039Z,94274.20
2019-03-16T10:47:38.571Z,94280.38
2019-03-16T10:50:09.838Z,94277.10
2019-03-16T10:52:38.326Z,94287.33
2019-03-16T10:55:08.424Z,94280.19
2019-03-16T10:57:37.287Z,94294.22
2019-03-16T11:00:16.848Z,94284.97
2019-03-16T11:02:45.442Z,94294.48
2019-03-16T11:05:14.057Z,94288.40
2019-03-16T11:07:42.566Z,94288.45
2019-03-16T11:10:15.106Z,94289.00
2019-03-16T11:12:43.717Z,94294.25
2019-03-16T11:15:13.649Z,94292.55
2019-03-16T11:17:45.148Z,94289.61
2019-03-16T11:20:16.741Z,94284.80
2019-03-16T11:22:45.486Z,94294.90
2019-03-16T11:25:14.017Z,94291.73
2019-03-16T11:27:42.614Z,94288.27
2019-03-16T11:30:16.137Z,94290.38
2019-03-16T11:32:44.746Z,94291.93
2019-03-16T11:35:14.885Z,94300.84
2019-03-16T11:37:43.492Z,94302.52
2019-03-16T11:40:17.645Z,94314.20
2019-03-16T11:42:46.273Z,94313.47
2019-03-16T11:45:17.260Z,94309.63
2019-03-16T11:47:46.765Z,94311.82
2019-03-16T11:50:15.727Z,94314.55
2019-03-16T11:52:44.408Z,94311.08
2019-03-16T11:55:13.003Z,94302.61
2019-03-16T11:57:41.580Z,94325.44
2019-03-16T12:00:16.523Z,94308.44
2019-03-16T12:02:45.080Z,94312.55
2019-03-16T12:05:13.850Z,94306.98
2019-03-16T12:07:42.488Z,94309.63
2019-03-16T12:10:15.019Z,94317.27
2019-03-16T12:12:43.541Z,94313.97
2019-03-16T12:15:13.097Z,94327.66
2019-03-16T12:17:41.699Z,94316.38
2019-03-16T12:20:12.634Z,94326.50
2019-03-16T12:22:41.195Z,94321.33
2019-03-16T12:25:13.572Z,94314.94
2019-03-16T12:27:42.192Z,94322.50
2019-03-16T12:30:15.571Z,94326.39
2019-03-16T12:32:44.156Z,94317.27
2019-03-16T12:35:12.781Z,94332.00
2019-03-16T12:37:41.238Z,94326.53
2019-03-16T12:40:14.332Z,94325.60
2019-03-16T12:42:44.274Z,94321.63
2019-03-16T12:45:20.589Z,94320.73
2019-03-16T12:47:48.179Z,94327.12
2019-03-16T12:50:17.058Z,94318.55
2019-03-16T12:52:45.934Z,94313.82
2019-03-16T12:55:14.545Z,94322.28
2019-03-16T12:57:43.310Z,94324.02
2019-03-16T13:00:16.731Z,94329.64
2019-03-16T13:02:45.327Z,94320.66
2019-03-16T13:05:13.933Z,94322.97
2019-03-16T13:07:42.471Z,94332.80
2019-03-16T13:10:18.822Z,94329.87
2019-03-16T13:12:47.505Z,94346.80
2019-03-16T13:15:16.107Z,94338.80
2019-03-16T13:17:44.609Z,94350.28
2019-03-16T13:20:17.335Z,94357.83
2019-03-16T13:22:45.936Z,94356.94
2019-03-16T13:25:14.545Z,94363.55
2019-03-16T13:27:43.154Z,94352.08
2019-03-16T13:30:17.512Z,94354.20
2019-03-16T13:32:46.164Z,94363.55
2019-03-16T13:35:14.799Z,94365.66
2019-03-16T13:37:43.562Z,94358.45
2019-03-16T13:40:16.520Z,94361.41
2019-03-16T13:42:45.550Z,94366.09
2019-03-16T13:45:14.567Z,94371.13
2019-03-16T13:47:43.174Z,94372.32
2019-03-16T13:50:14.307Z,94366.39
2019-03-16T13:52:43.074Z,94362.20
2019-03-16T13:55:13.457Z,94366.91
2019-03-16T13:57:42.098Z,94351.93
2019-03-16T14:00:18.269Z,94359.09
2019-03-16T14:02:46.917Z,94370.05
2019-03-16T14:05:15.494Z,94371.69
2019-03-16T14:07:44.570Z,94365.77
2019-03-16T14:10:21.354Z,94366.52
2019-03-16T14:12:49.987Z,94381.30
2019-03-16T14:15:19.578Z,94381.25
2019-03-16T14:17:48.082Z,94379.14
2019-03-16T14:20:17.073Z,94388.88
2019-03-16T14:22:45.601Z,94382.58
2019-03-16T14:25:14.235Z,94378.40
2019-03-16T14:27:42.829Z,94396.23
2019-03-16T14:30:39.393Z,94392.86
2019-03-16T14:32:49.638Z,94402.22
2019-03-16T14:35:18.240Z,94403.98
2019-03-16T14:37:46.775Z,94408.70
2019-03-16T14:40:16.220Z,94406.59
2019-03-16T14:42:44.893Z,94404.42
2019-03-16T14:45:17.217Z,94405.22
2019-03-16T14:47:46.021Z,94400.57
2019-03-16T14:50:19.617Z,94399.71
2019-03-16T14:52:48.203Z,94398.81
2019-03-16T14:55:16.874Z,94398.42
2019-03-16T14:57:45.480Z,94399.71
2019-03-16T15:00:15.911Z,94409.96
2019-03-16T15:02:46.049Z,94421.81
2019-03-16T15:05:14.907Z,94415.05
2019-03-16T15:07:43.507Z,94420.61
2019-03-16T15:10:14.269Z,94420.15
2019-03-16T15:12:42.890Z,94425.62
2019-03-16T15:15:14.061Z,94425.99
2019-03-16T15:17:42.667Z,94430.23
2019-03-16T15:20:12.062Z,94432.36
2019-03-16T15:22:40.609Z,94432.00
2019-03-16T15:25:11.697Z,94431.75
2019-03-16T15:27:40.544Z,94439.41
2019-03-16T15:30:22.201Z,94438.59
2019-03-16T15:32:52.469Z,94436.95
2019-03-16T15:35:21.143Z,94439.19
2019-03-16T15:37:49.756Z,94445.17
2019-03-16T15:40:18.380Z,94446.09
2019-03-16T15:42:46.977Z,94455.98
2019-03-16T15:45:23.912Z,94454.78
2019-03-16T15:47:52.515Z,94456.56
2019-03-16T15:50:21.117Z,94461.73
2019-03-16T15:52:49.652Z,94459.69
2019-03-16T15:55:18.318Z,94460.16
2019-03-16T15:57:46.928Z,94469.13
2019-03-16T16:00:20.453Z,94459.45
2019-03-16T16:02:49.056Z,94455.33
2019-03-16T16:05:17.633Z,94452.02
2019-03-16T16:07:46.270Z,94457.17
2019-03-16T16:10:18.916Z,94464.09
2019-03-16T16:12:47.519Z,94464.61
2019-03-16T16:15:16.117Z,94460.86
2019-03-16T16:17:46.224Z,94454.98
2019-03-16T16:20:18.425Z,94461.02
2019-03-16T16:22:48.367Z,94462.80
2019-03-16T16:25:17.032Z,94459.92
2019-03-16T16:27:45.606Z,94465.45
2019-03-16T16:30:15.909Z,94465.95
2019-03-16T16:32:44.508Z,94469.39
2019-03-16T16:35:15.458Z,94463.53
2019-03-16T16:37:44.400Z,94467.47
2019-03-16T16:40:20.529Z,94470.55
2019-03-16T16:42:49.170Z,94478.65
2019-03-16T16:45:20.962Z,94480.84
2019-03-16T16:47:49.568Z,94469.06
2019-03-16T16:50:19.705Z,94474.14
2019-03-16T16:52:48.312Z,94476.28
2019-03-16T16:55:20.137Z,94479.69
2019-03-16T16:57:48.716Z,94496.19
2019-03-16T17:00:24.641Z,94500.47
2019-03-16T17:02:53.176Z,94490.31
2019-03-16T17:05:21.780Z,94497.97
2019-03-16T17:07:50.332Z,94495.43
2019-03-16T17:10:18.944Z,94498.44
2019-03-16T17:12:47.634Z,94508.62
2019-03-16T17:15:18.321Z,94503.95
2019-03-16T17:17:46.941Z,94506.92
2019-03-16T17:20:16.166Z,94501.44
2019-03-16T17:22:53.406Z,94506.08
2019-03-16T17:25:21.976Z,94514.13
2019-03-16T17:27:50.599Z,94513.29
2019-03-16T17:30:21.973Z,94518.33
2019-03-16T17:32:50.494Z,94521.73
2019-03-16T17:35:19.100Z,94526.81
2019-03-16T17:37:48.869Z,94530.62
2019-03-16T17:40:17.423Z,94530.62
2019-03-16T17:42:46.036Z,94536.96
2019-03-16T17:45:17.520Z,94540.33
2019-03-16T17:47:46.132Z,94540.73
2019-03-16T17:50:16.054Z,94549.61
2019-03-16T17:52:44.587Z,94547.08
2019-03-16T17:55:15.326Z,94550.88
2019-03-16T17:57:45.424Z,94554.25
2019-03-16T18:00:18.772Z,94551.28
2019-03-16T18:02:51.776Z,94549.18
2019-03-16T18:05:17.809Z,94552.13
2019-03-16T18:07:46.338Z,94555.89
2019-03-16T18:10:16.257Z,94552.49
2019-03-16T18:12:44.964Z,94547.84
2019-03-16T18:15:15.191Z,94554.16
2019-03-16T18:17:43.808Z,94548.69
2019-03-16T18:20:17.089Z,94549.52
2019-03-16T18:22:44.373Z,94556.70
2019-03-16T18:25:13.880Z,94557.13
2019-03-16T18:27:42.520Z,94566.42
2019-03-16T18:30:16.241Z,94571.92
2019-03-16T18:32:45.140Z,94576.57
2019-03-16T18:35:14.069Z,94580.38
2019-03-16T18:37:42.799Z,94579.11
2019-03-16T18:40:13.393Z,94578.23
2019-03-16T18:42:42.030Z,94575.27
2019-03-16T18:45:33.545Z,94582.91
2019-03-16T18:48:02.284Z,94576.97
2019-03-16T18:50:30.923Z,94578.23
2019-03-16T18:52:59.501Z,94574.83
2019-03-16T18:55:28.037Z,94569.36
2019-03-16T18:57:56.709Z,94568.95
2019-03-16T19:00:25.154Z,94566.42
2019-03-16T19:02:53.759Z,94574.89
2019-03-16T19:05:22.363Z,94570.66
2019-03-16T19:07:50.898Z,94568.09
2019-03-16T19:10:19.602Z,94574.47
2019-03-16T19:12:48.207Z,94569.79
2019-03-16T19:15:18.027Z,94575.30
2019-03-16T19:17:58.240Z,94574.44
2019-03-16T19:20:18.080Z,94581.64
2019-03-16T19:22:47.492Z,94588.83
2019-03-16T19:25:23.268Z,94589.66
2019-03-16T19:27:51.878Z,94587.13
2019-03-16T19:30:20.511Z,94582.91
2019-03-16T19:32:49.123Z,94578.67
2019-03-16T19:35:18.031Z,94575.70
2019-03-16T19:37:47.311Z,94569.75
2019-03-16T19:40:23.685Z,94576.10
2019-03-16T19:42:52.322Z,94567.66
2019-03-16T19:45:21.008Z,94560.04
2019-03-16T19:47:49.682Z,94568.52
2019-03-16T19:50:18.322Z,94570.19
2019-03-16T19:52:48.589Z,94569.75
2019-03-16T19:55:17.198Z,94563.02
2019-03-16T19:57:47.286Z,94566.38
2019-03-16T20:00:17.972Z,94570.62
2019-03-16T20:02:51.015Z,94557.94
2019-03-16T20:05:17.015Z,94557.53
2019-03-16T20:07:45.642Z,94564.71
2019-03-16T20:10:15.739Z,94559.60
2019-03-16T20:12:44.350Z,94562.14
2019-03-16T20:15:14.389Z,94564.68
2019-03-16T20:17:42.988Z,94563.84
2019-03-16T20:20:18.110Z,94556.20
2019-03-16T20:22:46.728Z,94562.94
2019-03-16T20:25:15.589Z,94555.33
2019-03-16T20:27:44.167Z,94546.44
2019-03-16T20:30:14.439Z,94559.97
2019-03-16T20:32:43.072Z,94556.16
2019-03-16T20:35:12.076Z,94555.33
2019-03-16T20:37:40.694Z,94560.80
2019-03-16T20:40:11.635Z,94568.89
2019-03-16T20:42:40.298Z,94561.70
2019-03-16T20:45:11.089Z,94565.08
2019-03-16T20:47:39.953Z,94566.34
2019-03-16T20:50:11.282Z,94567.19
2019-03-16T20:52:39.883Z,94568.92
2019-03-16T20:55:09.880Z,94563.84
2019-03-16T20:57:38.453Z,94561.70
2019-03-16T21:00:15.711Z,94560.88
2019-03-16T21:02:44.455Z,94576.07
2019-03-16T21:05:13.081Z,94574.83
2019-03-16T21:07:41.644Z,94582.88
2019-03-16T21:10:11.541Z,94578.64
2019-03-16T21:12:40.610Z,94580.75
2019-03-16T21:15:19.623Z,94583.28
2019-03-16T21:17:48.184Z,94589.63
2019-03-16T21:20:26.922Z,94590.90
2019-03-16T21:22:55.465Z,94590.90
2019-03-16T21:25:24.067Z,94596.81
2019-03-16T21:27:52.819Z,94600.62
2019-03-16T21:30:22.143Z,94598.08
2019-03-16T21:32:52.520Z,94595.54
2019-03-16T21:35:20.999Z,94596.81
2019-03-16T21:37:49.602Z,94601.45
2019-03-16T21:40:18.241Z,94606.56
2019-03-16T21:42:46.842Z,94614.17
2019-03-16T21:45:17.237Z,94617.14
2019-03-16T21:47:45.905Z,94625.22
2019-03-16T21:50:15.580Z,94621.84
2019-03-16T21:52:45.058Z,94623.14
2019-03-16T21:55:14.814Z,94620.61
2019-03-16T21:57:43.347Z,94621.88
2019-03-16T22:00:18.215Z,94623.57
2019-03-16T22:02:46.829Z,94628.23
2019-03-16T22:05:15.445Z,94624.03
2019-03-16T22:07:44.257Z,94627.86
2019-03-16T22:10:18.748Z,94623.62
2019-03-16T22:12:47.364Z,94623.22
2019-03-16T22:15:16.874Z,94610.53
2019-03-16T22:17:45.915Z,94613.50
2019-03-16T22:20:18.273Z,94604.22
2019-03-16T22:22:46.878Z,94603.78
2019-03-16T22:25:15.482Z,94603.38
2019-03-16T22:27:44.014Z,94600.84
2019-03-16T22:30:17.637Z,94602.54
2019-03-16T22:32:46.261Z,94606.38
2019-03-16T22:35:15.160Z,94601.30
2019-03-16T22:37:43.674Z,94600.88
2019-03-16T22:40:13.502Z,94606.39
2019-03-16T22:42:45.080Z,94606.39
2019-03-16T22:45:14.888Z,94604.72
2019-03-16T22:47:43.447Z,94609.78
2019-03-16T22:50:19.799Z,94605.57
2019-03-16T22:52:48.406Z,94606.00
2019-03-16T22:55:17.092Z,94604.33
2019-03-16T22:57:45.696Z,94609.42
2019-03-16T23:00:21.672Z,94609.00
2019-03-16T23:02:50.283Z,94602.26
2019-03-16T23:05:18.806Z,94603.12
2019-03-16T23:07:47.725Z,94603.13
2019-03-16T23:10:16.220Z,94603.98
2019-03-16T23:12:45.118Z,94602.70
2019-03-16T23:15:13.732Z,94600.59
2019-03-16T23:17:42.370Z,94604.39
2019-03-16T23:20:11.883Z,94604.42
2019-03-16T23:22:40.419Z,94609.05
2019-03-16T23:25:10.488Z,94609.08
2019-03-16T23:27:47.391Z,94612.87
2019-03-16T23:30:15.952Z,94607.41
2019-03-16T23:32:44.665Z,94605.27
2019-03-16T23:35:13.268Z,94601.47
2019-03-16T23:37:43.133Z,94601.89
2019-03-16T23:40:19.960Z,94601.47
2019-03-16T23:42:43.517Z,94603.17
2019-03-16T23:45:13.427Z,94601.06
2019-03-16T23:47:43.030Z,94601.90
2019-03-16T23:50:13.160Z,94601.06
2019-03-16T23:52:41.774Z,94599.80
2019-03-16T23:55:33.586Z,94605.70
2019-03-16T23:57:41.504Z,94610.36
